createdAt,value
2023-04-16T00:01:02.482Z,76.38
2023-04-16T00:03:34.586Z,76.38
2023-04-16T00:06:02.461Z,76.40
2023-04-16T00:08:30.111Z,76.44
2023-04-16T00:10:57.700Z,76.60
2023-04-16T00:13:27.100Z,76.49
2023-04-16T00:15:54.986Z,76.35
2023-04-16T00:18:22.549Z,76.57
2023-04-16T00:20:50.861Z,76.52
2023-04-16T00:23:18.543Z,76.52
2023-04-16T00:25:46.280Z,76.41
2023-04-16T00:28:13.994Z,76.48
2023-04-16T00:30:41.658Z,76.71
2023-04-16T00:33:09.289Z,76.56
2023-04-16T00:35:36.903Z,76.72
2023-04-16T00:38:04.562Z,76.87
2023-04-16T00:40:32.147Z,77.01
2023-04-16T00:42:59.889Z,77.02
2023-04-16T00:45:27.480Z,77.16
2023-04-16T00:47:55.898Z,77.06
2023-04-16T00:50:23.532Z,77.26
2023-04-16T00:52:51.166Z,77.13
2023-04-16T00:55:19.143Z,77.49
2023-04-16T00:57:46.834Z,77.31
2023-04-16T01:00:14.658Z,77.43
2023-04-16T01:02:42.702Z,77.27
2023-04-16T01:05:10.432Z,77.21
2023-04-16T01:07:38.194Z,77.02
2023-04-16T01:10:06.461Z,77.39
2023-04-16T01:12:34.047Z,77.33
2023-04-16T01:15:01.749Z,77.31
2023-04-16T01:17:29.445Z,77.30
2023-04-16T01:20:00.446Z,77.48
2023-04-16T01:22:28.689Z,77.77
2023-04-16T01:24:56.505Z,77.91
2023-04-16T01:27:24.050Z,77.97
2023-04-16T01:29:51.721Z,78.00
2023-04-16T01:32:19.375Z,78.05
2023-04-16T01:34:46.992Z,78.11
2023-04-16T01:37:14.561Z,78.45
2023-04-16T01:39:42.122Z,78.74
2023-04-16T01:42:09.682Z,79.60
2023-04-16T01:44:37.353Z,79.23
2023-04-16T01:47:04.975Z,79.28
2023-04-16T01:49:33.804Z,79.46
2023-04-16T01:52:01.407Z,79.68
2023-04-16T01:54:28.982Z,79.62
2023-04-16T01:56:57.110Z,79.96
2023-04-16T01:59:24.678Z,79.73
2023-04-16T02:01:52.340Z,79.74
2023-04-16T02:04:19.983Z,79.61
2023-04-16T02:06:47.552Z,79.86
2023-04-16T02:09:15.603Z,79.82
2023-04-16T02:11:43.199Z,79.88
2023-04-16T02:14:11.047Z,79.88
2023-04-16T02:16:38.656Z,80.09
2023-04-16T02:19:06.564Z,79.87
2023-04-16T02:21:34.353Z,79.78
2023-04-16T02:24:02.068Z,80.04
2023-04-16T02:26:29.859Z,80.07
2023-04-16T02:28:57.432Z,80.18
2023-04-16T02:31:25.052Z,80.21
2023-04-16T02:33:52.649Z,80.19
2023-04-16T02:36:20.334Z,80.13
2023-04-16T02:38:47.921Z,80.04
2023-04-16T02:41:15.486Z,80.32
2023-04-16T02:43:43.071Z,79.91
2023-04-16T02:46:10.828Z,79.88
2023-04-16T02:48:38.445Z,79.68
2023-04-16T02:51:06.042Z,79.44
2023-04-16T02:53:33.857Z,79.54
2023-04-16T02:56:01.464Z,79.53
2023-04-16T02:58:29.053Z,79.64
2023-04-16T03:00:56.786Z,79.66
2023-04-16T03:03:24.522Z,79.33
2023-04-16T03:05:52.282Z,79.43
2023-04-16T03:08:19.897Z,79.52
2023-04-16T03:10:47.508Z,79.54
2023-04-16T03:13:15.462Z,79.45
2023-04-16T03:15:48.820Z,79.51
2023-04-16T03:18:16.581Z,79.37
2023-04-16T03:20:44.229Z,79.38
2023-04-16T03:23:11.831Z,79.44
2023-04-16T03:25:40.655Z,79.39
2023-04-16T03:28:08.194Z,79.44
2023-04-16T03:30:35.930Z,79.58
2023-04-16T03:33:03.572Z,79.32
2023-04-16T03:35:31.245Z,79.39
2023-04-16T03:37:58.921Z,79.21
2023-04-16T03:40:26.552Z,79.42
2023-04-16T03:42:54.144Z,79.28
2023-04-16T03:45:21.712Z,79.52
2023-04-16T03:47:52.726Z,79.47
2023-04-16T03:50:20.493Z,79.63
2023-04-16T03:52:49.525Z,79.66
2023-04-16T03:55:17.148Z,79.70
2023-04-16T03:57:44.753Z,79.79
2023-04-16T04:00:12.502Z,79.64
2023-04-16T04:02:40.504Z,79.65
2023-04-16T04:05:08.547Z,79.73
2023-04-16T04:07:36.282Z,79.82
2023-04-16T04:10:04.158Z,79.90
2023-04-16T04:12:32.083Z,79.57
2023-04-16T04:14:59.667Z,79.69
2023-04-16T04:17:27.795Z,79.71
2023-04-16T04:22:28.110Z,79.67
2023-04-16T04:24:55.674Z,79.61
2023-04-16T04:27:23.236Z,79.67
2023-04-16T04:29:50.832Z,79.81
2023-04-16T04:32:18.714Z,79.66
2023-04-16T04:34:46.280Z,79.51
2023-04-16T04:37:13.859Z,79.30
2023-04-16T04:39:41.781Z,79.24
2023-04-16T04:42:09.429Z,79.45
2023-04-16T04:44:36.988Z,79.37
2023-04-16T04:47:04.605Z,79.23
2023-04-16T04:49:32.175Z,79.17
2023-04-16T04:51:59.774Z,79.20
2023-04-16T04:54:28.515Z,79.05
2023-04-16T04:56:56.599Z,78.99
2023-04-16T04:59:24.566Z,79.18
2023-04-16T05:01:52.225Z,78.99
2023-04-16T05:04:20.006Z,79.32
2023-04-16T05:06:47.648Z,79.02
2023-04-16T05:09:15.740Z,79.29
2023-04-16T05:11:43.322Z,79.52
2023-04-16T05:14:10.924Z,79.46
2023-04-16T05:16:38.673Z,79.45
2023-04-16T05:19:06.352Z,79.49
2023-04-16T05:21:34.061Z,79.50
2023-04-16T05:24:01.630Z,79.42
2023-04-16T05:26:29.208Z,79.62
2023-04-16T05:28:56.807Z,79.84
2023-04-16T05:31:24.620Z,79.68
2023-04-16T05:33:52.261Z,79.78
2023-04-16T05:36:19.841Z,79.68
2023-04-16T05:38:47.402Z,79.51
2023-04-16T05:41:15.169Z,79.20
2023-04-16T05:43:42.876Z,78.70
2023-04-16T05:46:11.134Z,79.03
2023-04-16T05:48:40.210Z,78.73
2023-04-16T05:51:07.966Z,78.28
2023-04-16T05:53:38.723Z,78.31
2023-04-16T05:56:07.075Z,78.14
2023-04-16T05:58:34.847Z,77.76
2023-04-16T06:01:02.444Z,77.70
2023-04-16T06:03:30.188Z,77.98
2023-04-16T06:05:58.006Z,77.64
2023-04-16T06:08:25.825Z,77.80
2023-04-16T06:10:53.560Z,77.82
2023-04-16T06:13:21.181Z,77.43
2023-04-16T06:15:48.838Z,77.02
2023-04-16T06:18:16.486Z,77.27
2023-04-16T06:20:44.113Z,76.86
2023-04-16T06:23:11.667Z,76.58
2023-04-16T06:25:39.303Z,76.27
2023-04-16T06:28:06.879Z,76.33
2023-04-16T06:30:34.515Z,76.15
2023-04-16T06:33:02.243Z,76.13
2023-04-16T06:35:29.985Z,76.46
2023-04-16T06:37:57.572Z,76.24
2023-04-16T06:40:25.545Z,75.68
2023-04-16T06:42:53.725Z,75.41
2023-04-16T06:45:21.369Z,75.36
2023-04-16T06:47:49.767Z,76.21
2023-04-16T06:50:17.673Z,75.70
2023-04-16T06:52:45.390Z,75.15
2023-04-16T06:55:12.961Z,74.88
2023-04-16T06:57:41.100Z,74.59
2023-04-16T07:00:09.233Z,74.17
2023-04-16T07:02:36.951Z,74.61
2023-04-16T07:05:05.118Z,73.69
2023-04-16T07:07:33.007Z,73.21
2023-04-16T07:10:00.935Z,73.21
2023-04-16T07:12:28.692Z,73.69
2023-04-16T07:14:56.781Z,73.62
2023-04-16T07:17:24.731Z,73.40
2023-04-16T07:19:52.800Z,72.68
2023-04-16T07:22:21.220Z,71.39
2023-04-16T07:24:49.033Z,71.69
2023-04-16T07:27:17.173Z,71.35
2023-04-16T07:29:46.020Z,70.72
2023-04-16T07:32:15.403Z,70.42
2023-04-16T07:34:43.499Z,70.78
2023-04-16T07:37:11.290Z,71.04
2023-04-16T07:39:38.962Z,70.97
2023-04-16T07:42:06.970Z,71.23
2023-04-16T07:44:34.568Z,71.21
2023-04-16T07:47:04.191Z,71.38
2023-04-16T07:49:33.568Z,71.37
2023-04-16T07:52:01.169Z,70.96
2023-04-16T07:54:29.256Z,70.49
2023-04-16T07:56:57.068Z,70.64
2023-04-16T07:59:24.790Z,70.79
2023-04-16T08:01:53.062Z,70.30
2023-04-16T08:04:25.408Z,69.61
2023-04-16T08:06:54.003Z,69.48
2023-04-16T08:09:22.955Z,68.73
2023-04-16T08:11:50.924Z,69.24
2023-04-16T08:14:18.911Z,69.16
2023-04-16T08:16:46.561Z,69.22
2023-04-16T08:19:14.135Z,69.13
2023-04-16T08:21:42.018Z,68.53
2023-04-16T08:24:09.772Z,68.66
2023-04-16T08:26:37.370Z,68.21
2023-04-16T08:29:05.176Z,68.59
2023-04-16T08:31:32.981Z,67.87
2023-04-16T08:34:00.952Z,67.73
2023-04-16T08:36:28.571Z,67.01
2023-04-16T08:38:56.237Z,67.18
2023-04-16T08:41:23.932Z,67.36
2023-04-16T08:43:52.160Z,67.38
2023-04-16T08:46:19.742Z,66.62
2023-04-16T08:48:47.716Z,67.27
2023-04-16T08:51:15.719Z,66.71
2023-04-16T08:53:48.724Z,66.36
2023-04-16T08:56:16.283Z,66.62
2023-04-16T08:58:43.882Z,66.21
2023-04-16T09:01:11.712Z,66.29
2023-04-16T09:03:39.454Z,66.01
2023-04-16T09:06:07.207Z,66.29
2023-04-16T09:08:36.158Z,66.35
2023-04-16T09:11:03.800Z,64.66
2023-04-16T09:13:31.960Z,65.07
2023-04-16T09:15:59.693Z,64.79
2023-04-16T09:18:28.534Z,65.25
2023-04-16T09:20:57.151Z,64.60
2023-04-16T09:23:25.221Z,64.07
2023-04-16T09:25:53.795Z,63.22
2023-04-16T09:28:40.432Z,62.22
2023-04-16T09:31:14.782Z,62.84
2023-04-16T09:33:45.807Z,62.14
2023-04-16T09:36:13.442Z,62.30
2023-04-16T09:38:52.166Z,61.43
2023-04-16T09:41:19.947Z,61.52
2023-04-16T09:43:56.643Z,62.02
2023-04-16T09:46:31.818Z,61.71
2023-04-16T09:49:05.544Z,61.41
2023-04-16T09:51:37.581Z,60.55
2023-04-16T09:54:06.191Z,61.25
2023-04-16T09:56:34.007Z,60.89
2023-04-16T09:59:01.708Z,60.82
2023-04-16T10:01:29.344Z,60.99
2023-04-16T10:03:57.208Z,61.34
2023-04-16T10:06:27.983Z,61.38
2023-04-16T10:08:58.597Z,60.69
2023-04-16T10:11:26.433Z,60.18
2023-04-16T10:13:54.097Z,60.14
2023-04-16T10:16:22.495Z,60.39
2023-04-16T10:18:50.221Z,59.97
2023-04-16T10:21:18.021Z,60.20
2023-04-16T10:23:48.780Z,60.21
2023-04-16T10:26:16.637Z,59.88
2023-04-16T10:28:45.015Z,60.79
2023-04-16T10:31:12.705Z,61.51
2023-04-16T10:33:41.022Z,62.11
2023-04-16T10:36:09.964Z,61.05
2023-04-16T10:38:47.820Z,59.78
2023-04-16T10:41:15.691Z,58.96
2023-04-16T10:43:47.572Z,57.84
2023-04-16T10:46:22.868Z,57.79
2023-04-16T10:48:53.104Z,57.26
2023-04-16T10:51:38.935Z,56.38
2023-04-16T10:54:10.010Z,56.40
2023-04-16T10:56:37.676Z,56.42
2023-04-16T10:59:06.516Z,56.08
2023-04-16T11:01:35.876Z,54.11
2023-04-16T11:04:22.465Z,53.87
2023-04-16T11:07:15.293Z,51.92
2023-04-16T11:10:05.716Z,51.33
2023-04-16T11:12:34.598Z,51.94
2023-04-16T11:15:03.776Z,52.70
2023-04-16T11:17:44.403Z,51.48
2023-04-16T11:20:26.142Z,50.87
2023-04-16T11:22:55.398Z,50.01
2023-04-16T11:25:33.455Z,48.59
2023-04-16T11:28:01.882Z,48.12
2023-04-16T11:30:30.678Z,47.61
2023-04-16T11:32:58.280Z,46.16
2023-04-16T11:35:26.218Z,45.13
2023-04-16T11:37:57.333Z,45.02
2023-04-16T11:40:25.346Z,44.28
2023-04-16T11:42:52.918Z,43.02
2023-04-16T11:45:20.766Z,43.08
2023-04-16T11:47:52.298Z,42.12
2023-04-16T11:50:23.802Z,40.66
2023-04-16T11:52:52.535Z,40.53
2023-04-16T11:55:20.639Z,39.71
2023-04-16T11:57:48.309Z,39.58
2023-04-16T12:00:16.207Z,40.15
2023-04-16T12:02:45.605Z,39.42
2023-04-16T12:05:35.092Z,38.33
2023-04-16T12:08:04.418Z,37.63
2023-04-16T12:10:36.645Z,38.52
2023-04-16T12:13:14.458Z,36.61
2023-04-16T12:15:52.328Z,34.69
2023-04-16T12:18:22.974Z,35.67
2023-04-16T12:20:53.386Z,35.25
2023-04-16T12:23:30.465Z,35.05
2023-04-16T12:26:02.792Z,33.79
2023-04-16T12:28:32.376Z,33.07
2023-04-16T12:31:00.659Z,33.07
2023-04-16T12:33:28.408Z,34.18
2023-04-16T12:35:56.021Z,34.52
2023-04-16T12:38:24.599Z,33.98
2023-04-16T12:40:56.544Z,35.37
2023-04-16T12:43:25.128Z,36.61
2023-04-16T12:45:52.858Z,37.86
2023-04-16T12:48:20.807Z,38.50
2023-04-16T12:50:48.412Z,39.52
2023-04-16T12:53:16.075Z,40.26
2023-04-16T12:55:45.399Z,40.55
2023-04-16T12:58:13.088Z,41.04
2023-04-16T13:00:40.836Z,41.38
2023-04-16T13:03:08.595Z,41.87
2023-04-16T13:05:36.556Z,42.38
2023-04-16T13:08:04.183Z,42.78
2023-04-16T13:10:31.781Z,43.21
2023-04-16T13:12:59.474Z,43.25
2023-04-16T13:15:27.133Z,43.51
2023-04-16T13:17:54.770Z,43.71
2023-04-16T13:20:24.414Z,44.46
2023-04-16T13:22:52.231Z,44.60
2023-04-16T13:25:19.824Z,45.02
2023-04-16T13:27:47.422Z,45.27
2023-04-16T13:30:15.159Z,45.46
2023-04-16T13:32:42.744Z,45.52
2023-04-16T13:35:10.743Z,45.13
2023-04-16T13:37:38.430Z,44.99
2023-04-16T13:40:07.080Z,45.48
2023-04-16T13:42:34.788Z,45.26
2023-04-16T13:45:03.053Z,45.45
2023-04-16T13:47:30.844Z,46.11
2023-04-16T13:49:58.484Z,46.52
2023-04-16T13:52:26.266Z,46.46
2023-04-16T13:54:53.906Z,46.52
2023-04-16T13:57:22.088Z,46.43
2023-04-16T13:59:49.694Z,46.75
2023-04-16T14:02:17.413Z,46.81
2023-04-16T14:04:45.050Z,47.35
2023-04-16T14:07:12.639Z,46.93
2023-04-16T14:09:40.499Z,46.04
2023-04-16T14:12:08.128Z,45.81
2023-04-16T14:14:35.775Z,46.38
2023-04-16T14:17:03.415Z,46.75
2023-04-16T14:19:31.354Z,44.96
2023-04-16T14:21:58.930Z,43.25
2023-04-16T14:24:26.499Z,43.72
2023-04-16T14:26:54.131Z,44.42
2023-04-16T14:29:21.819Z,43.27
2023-04-16T14:31:50.455Z,42.94
2023-04-16T14:34:18.176Z,43.09
2023-04-16T14:36:46.007Z,42.99
2023-04-16T14:39:13.588Z,42.92
2023-04-16T14:41:41.224Z,42.16
2023-04-16T14:44:08.862Z,41.89
2023-04-16T14:46:38.722Z,41.28
2023-04-16T14:49:06.657Z,40.06
2023-04-16T14:51:34.367Z,39.14
2023-04-16T14:54:02.121Z,38.59
2023-04-16T14:56:29.807Z,38.37
2023-04-16T14:58:57.452Z,38.04
2023-04-16T15:01:25.065Z,37.46
2023-04-16T15:03:55.960Z,36.80
2023-04-16T15:06:24.001Z,36.34
2023-04-16T15:08:51.976Z,36.04
2023-04-16T15:11:19.636Z,36.03
2023-04-16T15:13:47.210Z,35.39
2023-04-16T15:16:14.846Z,35.26
2023-04-16T15:18:42.534Z,35.76
2023-04-16T15:21:12.431Z,35.69
2023-04-16T15:23:40.355Z,35.92
2023-04-16T15:26:08.015Z,36.79
2023-04-16T15:28:35.803Z,37.05
2023-04-16T15:31:03.412Z,37.42
2023-04-16T15:33:31.270Z,37.99
2023-04-16T15:35:59.097Z,38.57
2023-04-16T15:38:26.732Z,39.05
2023-04-16T15:40:54.296Z,39.39
2023-04-16T15:43:21.870Z,39.66
2023-04-16T15:45:49.458Z,40.05
2023-04-16T15:48:17.210Z,40.09
2023-04-16T15:50:44.790Z,40.41
2023-04-16T15:53:12.910Z,41.21
2023-04-16T15:55:40.714Z,41.07
2023-04-16T15:58:08.692Z,40.43
2023-04-16T16:00:36.274Z,40.81
2023-04-16T16:03:04.161Z,40.94
2023-04-16T16:05:32.178Z,41.30
2023-04-16T16:08:01.799Z,41.39
2023-04-16T16:10:29.586Z,41.39
2023-04-16T16:12:57.759Z,41.81
2023-04-16T16:15:25.791Z,41.50
2023-04-16T16:17:53.550Z,41.68
2023-04-16T16:20:22.673Z,42.38
2023-04-16T16:22:53.119Z,42.47
2023-04-16T16:25:21.471Z,42.71
2023-04-16T16:27:49.073Z,43.11
2023-04-16T16:30:16.711Z,43.29
2023-04-16T16:32:44.641Z,43.55
2023-04-16T16:35:12.483Z,44.27
2023-04-16T16:37:40.302Z,44.17
2023-04-16T16:40:08.786Z,44.28
2023-04-16T16:42:36.386Z,44.46
2023-04-16T16:45:05.986Z,45.65
2023-04-16T16:47:33.654Z,46.54
2023-04-16T16:50:02.885Z,46.67
2023-04-16T16:52:30.930Z,46.55
2023-04-16T16:54:58.512Z,47.01
2023-04-16T16:57:26.428Z,46.64
2023-04-16T16:59:57.030Z,46.12
2023-04-16T17:02:24.726Z,46.16
2023-04-16T17:04:52.876Z,46.19
2023-04-16T17:07:20.982Z,46.35
2023-04-16T17:09:48.625Z,46.33
2023-04-16T17:12:16.484Z,46.56
2023-04-16T17:14:44.068Z,47.34
2023-04-16T17:17:11.724Z,48.12
2023-04-16T17:19:39.325Z,48.26
2023-04-16T17:22:06.918Z,48.29
2023-04-16T17:24:34.504Z,48.16
2023-04-16T17:27:04.175Z,48.36
2023-04-16T17:29:31.821Z,48.84
2023-04-16T17:31:59.427Z,49.00
2023-04-16T17:34:27.976Z,49.02
2023-04-16T17:36:55.767Z,49.40
2023-04-16T17:39:23.354Z,49.81
2023-04-16T17:41:54.376Z,50.03
2023-04-16T17:44:23.236Z,50.45
2023-04-16T17:46:51.255Z,50.75
2023-04-16T17:49:18.830Z,51.07
2023-04-16T17:51:46.551Z,51.40
2023-04-16T17:54:14.142Z,51.87
2023-04-16T17:56:41.726Z,52.15
2023-04-16T17:59:09.342Z,52.47
2023-04-16T18:01:36.986Z,52.67
2023-04-16T18:04:04.992Z,52.88
2023-04-16T18:06:32.900Z,53.25
2023-04-16T18:09:00.699Z,53.58
2023-04-16T18:11:31.045Z,53.91
2023-04-16T18:13:58.894Z,54.47
2023-04-16T18:16:26.678Z,54.72
2023-04-16T18:18:54.459Z,55.09
2023-04-16T18:21:22.173Z,55.40
2023-04-16T18:23:49.751Z,55.60
2023-04-16T18:26:20.568Z,55.87
2023-04-16T18:28:48.640Z,56.13
2023-04-16T18:31:18.990Z,56.31
2023-04-16T18:33:56.403Z,56.31
2023-04-16T18:36:26.833Z,56.73
2023-04-16T18:41:27.036Z,57.40
2023-04-16T18:43:54.679Z,57.43
2023-04-16T18:46:22.520Z,57.87
2023-04-16T18:48:50.341Z,57.93
2023-04-16T18:51:17.988Z,58.11
2023-04-16T18:53:45.863Z,58.17
2023-04-16T18:56:13.850Z,58.33
2023-04-16T18:58:41.667Z,58.49
2023-04-16T19:01:12.910Z,58.85
2023-04-16T19:03:40.946Z,58.87
2023-04-16T19:06:08.593Z,59.08
2023-04-16T19:08:36.454Z,59.09
2023-04-16T19:11:04.153Z,59.55
2023-04-16T19:13:32.380Z,59.79
2023-04-16T19:16:01.052Z,59.85
2023-04-16T19:18:28.964Z,59.77
2023-04-16T19:21:00.691Z,60.04
2023-04-16T19:23:28.732Z,60.19
2023-04-16T19:25:57.126Z,60.39
2023-04-16T19:28:25.236Z,60.45
2023-04-16T19:30:53.482Z,60.28
2023-04-16T19:33:21.085Z,60.43
2023-04-16T19:35:48.967Z,60.55
2023-04-16T19:38:16.612Z,60.65
2023-04-16T19:40:46.607Z,60.50
2023-04-16T19:43:14.732Z,61.00
2023-04-16T19:45:53.392Z,60.88
2023-04-16T19:48:21.468Z,61.14
2023-04-16T19:50:49.338Z,61.28
2023-04-16T19:53:17.400Z,61.46
2023-04-16T19:55:45.021Z,61.76
2023-04-16T19:58:14.482Z,62.04
2023-04-16T20:00:42.361Z,62.39
2023-04-16T20:03:10.112Z,62.69
2023-04-16T20:05:37.789Z,62.73
2023-04-16T20:08:06.258Z,62.82
2023-04-16T20:10:33.920Z,63.24
2023-04-16T20:13:01.516Z,63.71
2023-04-16T20:15:29.106Z,63.43
2023-04-16T20:17:56.846Z,63.32
2023-04-16T20:20:24.533Z,63.42
2023-04-16T20:22:52.197Z,63.73
2023-04-16T20:25:19.841Z,63.60
2023-04-16T20:27:47.598Z,64.02
2023-04-16T20:30:15.554Z,64.17
2023-04-16T20:32:43.152Z,64.02
2023-04-16T20:35:11.696Z,64.34
2023-04-16T20:37:42.082Z,64.19
2023-04-16T20:40:10.958Z,64.01
2023-04-16T20:42:38.757Z,64.52
2023-04-16T20:45:07.499Z,64.70
2023-04-16T20:47:35.281Z,64.52
2023-04-16T20:50:03.799Z,64.86
2023-04-16T20:52:31.414Z,65.03
2023-04-16T20:54:59.011Z,65.10
2023-04-16T20:57:28.186Z,65.11
2023-04-16T20:59:56.455Z,64.88
2023-04-16T21:02:24.450Z,65.29
2023-04-16T21:04:52.535Z,65.30
2023-04-16T21:07:20.491Z,65.44
2023-04-16T21:09:48.063Z,65.49
2023-04-16T21:12:15.639Z,65.86
2023-04-16T21:14:43.238Z,65.83
2023-04-16T21:17:10.793Z,65.70
2023-04-16T21:19:38.460Z,66.07
2023-04-16T21:22:06.020Z,66.65
2023-04-16T21:24:33.625Z,66.80
2023-04-16T21:27:01.879Z,66.87
2023-04-16T21:29:30.010Z,66.87
2023-04-16T21:31:57.679Z,66.66
2023-04-16T21:34:25.473Z,66.54
2023-04-16T21:36:53.031Z,66.72
2023-04-16T21:39:21.844Z,66.89
2023-04-16T21:41:49.468Z,66.96
2023-04-16T21:44:17.155Z,67.08
2023-04-16T21:46:44.790Z,66.91
2023-04-16T21:49:12.665Z,66.97
2023-04-16T21:51:43.004Z,67.22
2023-04-16T21:54:10.648Z,67.66
2023-04-16T21:56:38.232Z,67.55
2023-04-16T21:59:05.858Z,67.64
2023-04-16T22:01:33.511Z,67.81
2023-04-16T22:04:02.071Z,67.69
2023-04-16T22:06:29.783Z,67.70
2023-04-16T22:08:58.979Z,67.56
2023-04-16T22:11:26.546Z,67.46
2023-04-16T22:13:57.795Z,67.28
2023-04-16T22:16:25.873Z,67.28
2023-04-16T22:18:54.985Z,67.38
2023-04-16T22:21:22.644Z,67.42
2023-04-16T22:23:50.381Z,67.54
2023-04-16T22:26:17.991Z,67.81
2023-04-16T22:28:45.575Z,67.92
2023-04-16T22:31:13.330Z,68.28
2023-04-16T22:33:40.967Z,68.33
2023-04-16T22:36:08.915Z,68.72
2023-04-16T22:38:38.723Z,68.80
2023-04-16T22:41:06.397Z,68.70
2023-04-16T22:43:37.036Z,68.77
2023-04-16T22:46:06.577Z,68.99
2023-04-16T22:48:36.349Z,68.96
2023-04-16T22:51:12.982Z,68.97
2023-04-16T22:53:40.583Z,69.10
2023-04-16T22:56:08.199Z,69.08
2023-04-16T22:58:36.106Z,68.88
2023-04-16T23:01:03.745Z,68.68
2023-04-16T23:03:31.990Z,68.89
2023-04-16T23:05:59.671Z,68.97
2023-04-16T23:08:27.270Z,69.24
2023-04-16T23:10:54.896Z,69.78
2023-04-16T23:13:22.536Z,69.66
2023-04-16T23:15:50.346Z,69.56
2023-04-16T23:18:18.012Z,69.30
2023-04-16T23:20:45.634Z,69.45
2023-04-16T23:23:13.282Z,69.31
2023-04-16T23:25:41.381Z,69.00
2023-04-16T23:28:08.967Z,68.96
2023-04-16T23:30:36.592Z,69.17
2023-04-16T23:33:04.707Z,69.29
2023-04-16T23:35:32.478Z,69.96
2023-04-16T23:38:00.409Z,70.25
2023-04-16T23:40:28.047Z,70.34
2023-04-16T23:42:55.712Z,70.13
2023-04-16T23:45:23.319Z,70.25
2023-04-16T23:47:51.060Z,69.99
2023-04-16T23:50:18.829Z,70.73
2023-04-16T23:52:46.447Z,71.13
2023-04-16T23:55:14.086Z,70.99
2023-04-16T23:57:41.680Z,70.99
